sensor_id;sensor_type;location;lat;lon;timestamp;temperature;humidity
11423;DHT22;5768;51.476;7.210;2023-03-29T00:01:37;8.10;15.30
11423;DHT22;5768;51.476;7.210;2023-03-29T00:06:43;8.10;15.20
11423;DHT22;5768;51.476;7.210;2023-03-29T00:11:47;8.00;15.10
11423;DHT22;5768;51.476;7.210;2023-03-29T00:16:49;8.00;15.10
11423;DHT22;5768;51.476;7.210;2023-03-29T00:21:53;8.00;15.10
11423;DHT22;5768;51.476;7.210;2023-03-29T00:26:55;8.10;15.20
11423;DHT22;5768;51.476;7.210;2023-03-29T00:31:57;8.10;15.20
11423;DHT22;5768;51.476;7.210;2023-03-29T00:37:01;8.10;15.10
11423;DHT22;5768;51.476;7.210;2023-03-29T00:42:11;8.10;15.00
11423;DHT22;5768;51.476;7.210;2023-03-29T00:47:17;8.30;15.00
11423;DHT22;5768;51.476;7.210;2023-03-29T00:52:26;8.30;15.00
11423;DHT22;5768;51.476;7.210;2023-03-29T00:57:32;8.30;14.90
11423;DHT22;5768;51.476;7.210;2023-03-29T01:02:36;8.40;14.90
11423;DHT22;5768;51.476;7.210;2023-03-29T01:07:44;8.40;14.90
11423;DHT22;5768;51.476;7.210;2023-03-29T01:12:57;8.40;14.80
11423;DHT22;5768;51.476;7.210;2023-03-29T01:18:03;8.30;14.80
11423;DHT22;5768;51.476;7.210;2023-03-29T01:23:16;8.30;14.80
11423;DHT22;5768;51.476;7.210;2023-03-29T01:28:37;8.30;14.80
11423;DHT22;5768;51.476;7.210;2023-03-29T01:33:47;8.40;14.70
11423;DHT22;5768;51.476;7.210;2023-03-29T01:38:54;8.40;14.70
11423;DHT22;5768;51.476;7.210;2023-03-29T01:44:03;8.50;14.70
11423;DHT22;5768;51.476;7.210;2023-03-29T01:49:13;8.30;14.60
11423;DHT22;5768;51.476;7.210;2023-03-29T01:54:24;8.20;14.60
11423;DHT22;5768;51.476;7.210;2023-03-29T01:59:33;8.50;14.60
11423;DHT22;5768;51.476;7.210;2023-03-29T02:04:42;8.40;14.60
11423;DHT22;5768;51.476;7.210;2023-03-29T02:09:51;8.30;14.60
11423;DHT22;5768;51.476;7.210;2023-03-29T02:14:58;8.40;14.50
11423;DHT22;5768;51.476;7.210;2023-03-29T02:20:05;8.50;14.50
11423;DHT22;5768;51.476;7.210;2023-03-29T02:25:14;8.50;14.50
11423;DHT22;5768;51.476;7.210;2023-03-29T02:30:20;8.60;14.50
11423;DHT22;5768;51.476;7.210;2023-03-29T02:35:29;8.50;14.40
11423;DHT22;5768;51.476;7.210;2023-03-29T02:40:37;8.60;14.50
11423;DHT22;5768;51.476;7.210;2023-03-29T02:45:43;8.70;14.40
11423;DHT22;5768;51.476;7.210;2023-03-29T02:50:49;8.60;14.40
11423;DHT22;5768;51.476;7.210;2023-03-29T02:55:56;8.60;14.40
11423;DHT22;5768;51.476;7.210;2023-03-29T03:01:03;8.70;14.40
11423;DHT22;5768;51.476;7.210;2023-03-29T03:06:07;8.60;14.30
11423;DHT22;5768;51.476;7.210;2023-03-29T03:11:09;8.60;14.30
11423;DHT22;5768;51.476;7.210;2023-03-29T03:16:13;8.70;14.30
11423;DHT22;5768;51.476;7.210;2023-03-29T03:21:15;8.80;14.40
11423;DHT22;5768;51.476;7.210;2023-03-29T03:26:18;8.90;14.30
11423;DHT22;5768;51.476;7.210;2023-03-29T03:31:22;8.80;14.20
11423;DHT22;5768;51.476;7.210;2023-03-29T03:36:24;8.80;14.30
11423;DHT22;5768;51.476;7.210;2023-03-29T03:41:28;8.90;14.30
11423;DHT22;5768;51.476;7.210;2023-03-29T03:46:32;8.70;14.30
11423;DHT22;5768;51.476;7.210;2023-03-29T03:51:35;8.50;14.40
11423;DHT22;5768;51.476;7.210;2023-03-29T03:56:37;8.70;14.40
11423;DHT22;5768;51.476;7.210;2023-03-29T04:01:47;8.40;14.70
11423;DHT22;5768;51.476;7.210;2023-03-29T04:06:49;8.40;14.70
11423;DHT22;5768;51.476;7.210;2023-03-29T04:11:52;8.30;15.00
11423;DHT22;5768;51.476;7.210;2023-03-29T04:17:00;8.30;15.10
11423;DHT22;5768;51.476;7.210;2023-03-29T04:22:02;8.40;15.20
11423;DHT22;5768;51.476;7.210;2023-03-29T04:27:04;8.60;15.20
11423;DHT22;5768;51.476;7.210;2023-03-29T04:32:08;8.50;15.40
11423;DHT22;5768;51.476;7.210;2023-03-29T04:37:11;8.60;15.50
11423;DHT22;5768;51.476;7.210;2023-03-29T04:42:13;8.80;15.50
11423;DHT22;5768;51.476;7.210;2023-03-29T04:47:17;8.90;15.30
11423;DHT22;5768;51.476;7.210;2023-03-29T04:52:20;8.90;15.20
11423;DHT22;5768;51.476;7.210;2023-03-29T04:57:23;8.50;15.30
11423;DHT22;5768;51.476;7.210;2023-03-29T05:02:26;8.60;15.20
11423;DHT22;5768;51.476;7.210;2023-03-29T05:07:32;8.50;15.50
11423;DHT22;5768;51.476;7.210;2023-03-29T05:12:35;8.50;15.50
11423;DHT22;5768;51.476;7.210;2023-03-29T05:17:39;8.60;15.40
11423;DHT22;5768;51.476;7.210;2023-03-29T05:22:42;8.60;15.70
11423;DHT22;5768;51.476;7.210;2023-03-29T05:27:44;8.40;16.00
11423;DHT22;5768;51.476;7.210;2023-03-29T05:32:50;8.20;16.40
11423;DHT22;5768;51.476;7.210;2023-03-29T05:37:52;8.20;17.10
11423;DHT22;5768;51.476;7.210;2023-03-29T05:42:55;8.50;17.20
11423;DHT22;5768;51.476;7.210;2023-03-29T05:47:58;8.50;17.30
11423;DHT22;5768;51.476;7.210;2023-03-29T05:53:01;8.70;17.30
11423;DHT22;5768;51.476;7.210;2023-03-29T05:58:03;9.00;17.30
11423;DHT22;5768;51.476;7.210;2023-03-29T06:03:13;9.20;17.10
11423;DHT22;5768;51.476;7.210;2023-03-29T06:08:18;9.10;16.90
11423;DHT22;5768;51.476;7.210;2023-03-29T06:13:20;9.40;17.00
11423;DHT22;5768;51.476;7.210;2023-03-29T06:18:24;9.30;16.80
11423;DHT22;5768;51.476;7.210;2023-03-29T06:23:27;9.40;16.80
11423;DHT22;5768;51.476;7.210;2023-03-29T06:28:30;9.50;16.80
11423;DHT22;5768;51.476;7.210;2023-03-29T06:33:34;9.60;16.60
11423;DHT22;5768;51.476;7.210;2023-03-29T06:38:37;9.80;16.60
11423;DHT22;5768;51.476;7.210;2023-03-29T06:43:41;9.90;16.40
11423;DHT22;5768;51.476;7.210;2023-03-29T06:48:45;10.20;16.20
11423;DHT22;5768;51.476;7.210;2023-03-29T06:53:47;10.20;16.20
11423;DHT22;5768;51.476;7.210;2023-03-29T06:58:50;10.20;16.00
11423;DHT22;5768;51.476;7.210;2023-03-29T07:03:54;10.20;15.90
11423;DHT22;5768;51.476;7.210;2023-03-29T07:08:58;10.30;15.90
11423;DHT22;5768;51.476;7.210;2023-03-29T07:14:01;10.40;15.70
11423;DHT22;5768;51.476;7.210;2023-03-29T07:19:05;10.50;15.60
11423;DHT22;5768;51.476;7.210;2023-03-29T07:24:08;10.60;15.70
11423;DHT22;5768;51.476;7.210;2023-03-29T07:29:11;10.80;15.50
11423;DHT22;5768;51.476;7.210;2023-03-29T07:34:15;11.10;15.40
11423;DHT22;5768;51.476;7.210;2023-03-29T07:39:17;10.80;15.30
11423;DHT22;5768;51.476;7.210;2023-03-29T07:44:20;11.00;15.30
11423;DHT22;5768;51.476;7.210;2023-03-29T07:49:24;11.20;15.10
11423;DHT22;5768;51.476;7.210;2023-03-29T07:54:27;10.90;15.10
11423;DHT22;5768;51.476;7.210;2023-03-29T07:59:32;11.10;15.00
11423;DHT22;5768;51.476;7.210;2023-03-29T08:04:35;11.20;14.80
11423;DHT22;5768;51.476;7.210;2023-03-29T08:09:37;11.70;14.80
11423;DHT22;5768;51.476;7.210;2023-03-29T08:14:40;11.80;14.70
11423;DHT22;5768;51.476;7.210;2023-03-29T08:19:44;11.80;14.70
11423;DHT22;5768;51.476;7.210;2023-03-29T08:24:46;11.80;14.50
11423;DHT22;5768;51.476;7.210;2023-03-29T08:29:48;11.50;14.40
11423;DHT22;5768;51.476;7.210;2023-03-29T08:34:53;11.70;14.40
11423;DHT22;5768;51.476;7.210;2023-03-29T08:39:55;12.10;14.40
11423;DHT22;5768;51.476;7.210;2023-03-29T08:45:04;12.10;14.30
11423;DHT22;5768;51.476;7.210;2023-03-29T08:50:17;12.30;14.30
11423;DHT22;5768;51.476;7.210;2023-03-29T08:55:27;11.50;15.10
11423;DHT22;5768;51.476;7.210;2023-03-29T09:00:36;11.60;15.00
11423;DHT22;5768;51.476;7.210;2023-03-29T09:05:46;11.50;14.80
11423;DHT22;5768;51.476;7.210;2023-03-29T09:11:04;11.70;14.90
11423;DHT22;5768;51.476;7.210;2023-03-29T09:16:32;11.70;14.90
11423;DHT22;5768;51.476;7.210;2023-03-29T09:21:43;12.10;14.90
11423;DHT22;5768;51.476;7.210;2023-03-29T09:26:51;12.30;14.80
11423;DHT22;5768;51.476;7.210;2023-03-29T09:31:57;12.60;14.70
11423;DHT22;5768;51.476;7.210;2023-03-29T09:37:07;12.60;14.60
11423;DHT22;5768;51.476;7.210;2023-03-29T09:42:21;13.10;14.60
11423;DHT22;5768;51.476;7.210;2023-03-29T09:47:28;12.70;14.50
11423;DHT22;5768;51.476;7.210;2023-03-29T09:52:37;13.60;14.50
11423;DHT22;5768;51.476;7.210;2023-03-29T09:57:39;14.10;14.20
11423;DHT22;5768;51.476;7.210;2023-03-29T10:02:46;14.20;14.20
11423;DHT22;5768;51.476;7.210;2023-03-29T10:07:57;13.90;14.20
11423;DHT22;5768;51.476;7.210;2023-03-29T10:13:05;13.30;14.30
11423;DHT22;5768;51.476;7.210;2023-03-29T10:18:24;13.40;14.40
11423;DHT22;5768;51.476;7.210;2023-03-29T10:23:31;13.90;14.50
11423;DHT22;5768;51.476;7.210;2023-03-29T10:28:35;14.30;14.10
11423;DHT22;5768;51.476;7.210;2023-03-29T10:33:39;14.20;14.00
11423;DHT22;5768;51.476;7.210;2023-03-29T10:38:43;14.20;13.90
11423;DHT22;5768;51.476;7.210;2023-03-29T10:43:47;14.10;14.00
11423;DHT22;5768;51.476;7.210;2023-03-29T10:48:55;14.50;14.00
11423;DHT22;5768;51.476;7.210;2023-03-29T10:54:00;15.30;13.80
11423;DHT22;5768;51.476;7.210;2023-03-29T10:59:19;14.90;13.80
11423;DHT22;5768;51.476;7.210;2023-03-29T11:04:33;15.50;13.60
11423;DHT22;5768;51.476;7.210;2023-03-29T11:09:46;14.50;13.90
11423;DHT22;5768;51.476;7.210;2023-03-29T11:15:02;15.20;13.70
11423;DHT22;5768;51.476;7.210;2023-03-29T11:20:27;16.20;13.50
11423;DHT22;5768;51.476;7.210;2023-03-29T11:25:52;15.30;13.60
11423;DHT22;5768;51.476;7.210;2023-03-29T11:31:09;15.90;13.50
11423;DHT22;5768;51.476;7.210;2023-03-29T11:36:20;16.10;13.40
11423;DHT22;5768;51.476;7.210;2023-03-29T11:41:32;16.30;13.20
11423;DHT22;5768;51.476;7.210;2023-03-29T11:46:40;16.50;13.00
11423;DHT22;5768;51.476;7.210;2023-03-29T11:51:54;17.00;13.10
11423;DHT22;5768;51.476;7.210;2023-03-29T11:57:09;17.60;12.90
11423;DHT22;5768;51.476;7.210;2023-03-29T12:02:20;17.20;12.70
11423;DHT22;5768;51.476;7.210;2023-03-29T12:07:30;16.70;13.00
11423;DHT22;5768;51.476;7.210;2023-03-29T12:12:42;17.30;12.80
11423;DHT22;5768;51.476;7.210;2023-03-29T12:17:51;18.50;12.70
11423;DHT22;5768;51.476;7.210;2023-03-29T12:23:01;18.20;12.60
11423;DHT22;5768;51.476;7.210;2023-03-29T12:28:22;18.30;12.60
11423;DHT22;5768;51.476;7.210;2023-03-29T12:33:48;18.80;12.30
11423;DHT22;5768;51.476;7.210;2023-03-29T12:39:02;17.70;12.70
11423;DHT22;5768;51.476;7.210;2023-03-29T12:44:13;17.70;12.70
11423;DHT22;5768;51.476;7.210;2023-03-29T12:49:24;18.10;12.70
11423;DHT22;5768;51.476;7.210;2023-03-29T12:54:34;17.70;12.70
11423;DHT22;5768;51.476;7.210;2023-03-29T12:59:41;17.40;12.90
11423;DHT22;5768;51.476;7.210;2023-03-29T13:04:49;17.40;12.80
11423;DHT22;5768;51.476;7.210;2023-03-29T13:09:54;17.20;13.00
11423;DHT22;5768;51.476;7.210;2023-03-29T13:15:03;16.50;13.00
11423;DHT22;5768;51.476;7.210;2023-03-29T13:20:30;16.30;13.30
11423;DHT22;5768;51.476;7.210;2023-03-29T13:25:54;17.00;13.00
11423;DHT22;5768;51.476;7.210;2023-03-29T13:31:27;17.90;12.80
11423;DHT22;5768;51.476;7.210;2023-03-29T13:36:45;17.50;12.90
11423;DHT22;5768;51.476;7.210;2023-03-29T13:42:15;17.70;12.80
11423;DHT22;5768;51.476;7.210;2023-03-29T13:47:42;17.80;12.80
11423;DHT22;5768;51.476;7.210;2023-03-29T13:52:56;17.10;13.10
11423;DHT22;5768;51.476;7.210;2023-03-29T13:58:06;17.20;13.20
11423;DHT22;5768;51.476;7.210;2023-03-29T14:03:15;16.60;13.20
11423;DHT22;5768;51.476;7.210;2023-03-29T14:08:25;17.40;13.20
11423;DHT22;5768;51.476;7.210;2023-03-29T14:13:30;18.60;12.80
11423;DHT22;5768;51.476;7.210;2023-03-29T14:18:36;19.00;12.60
11423;DHT22;5768;51.476;7.210;2023-03-29T14:23:43;19.30;12.50
11423;DHT22;5768;51.476;7.210;2023-03-29T14:28:50;19.40;12.60
11423;DHT22;5768;51.476;7.210;2023-03-29T14:33:55;19.40;12.40
11423;DHT22;5768;51.476;7.210;2023-03-29T14:39:02;18.80;12.70
11423;DHT22;5768;51.476;7.210;2023-03-29T14:44:07;18.50;12.60
11423;DHT22;5768;51.476;7.210;2023-03-29T14:49:14;18.40;12.80
11423;DHT22;5768;51.476;7.210;2023-03-29T14:54:20;18.00;12.90
11423;DHT22;5768;51.476;7.210;2023-03-29T14:59:27;18.20;12.80
11423;DHT22;5768;51.476;7.210;2023-03-29T15:04:34;17.80;12.90
11423;DHT22;5768;51.476;7.210;2023-03-29T15:09:38;18.30;13.00
11423;DHT22;5768;51.476;7.210;2023-03-29T15:14:40;18.10;12.90
11423;DHT22;5768;51.476;7.210;2023-03-29T15:19:44;18.40;12.90
11423;DHT22;5768;51.476;7.210;2023-03-29T15:24:48;18.10;12.90
11423;DHT22;5768;51.476;7.210;2023-03-29T15:29:58;18.40;12.90
11423;DHT22;5768;51.476;7.210;2023-03-29T15:35:05;18.10;13.00
11423;DHT22;5768;51.476;7.210;2023-03-29T15:40:13;18.20;13.00
11423;DHT22;5768;51.476;7.210;2023-03-29T15:45:17;18.00;13.00
11423;DHT22;5768;51.476;7.210;2023-03-29T15:50:23;17.70;13.00
11423;DHT22;5768;51.476;7.210;2023-03-29T15:55:25;17.80;13.10
11423;DHT22;5768;51.476;7.210;2023-03-29T16:00:29;17.40;13.10
11423;DHT22;5768;51.476;7.210;2023-03-29T16:05:33;17.30;13.20
11423;DHT22;5768;51.476;7.210;2023-03-29T16:10:35;17.10;13.30
11423;DHT22;5768;51.476;7.210;2023-03-29T16:15:39;17.00;13.30
11423;DHT22;5768;51.476;7.210;2023-03-29T16:20:44;17.00;13.30
11423;DHT22;5768;51.476;7.210;2023-03-29T16:25:46;16.80;13.40
11423;DHT22;5768;51.476;7.210;2023-03-29T16:30:48;17.10;13.30
11423;DHT22;5768;51.476;7.210;2023-03-29T16:35:52;17.40;13.30
11423;DHT22;5768;51.476;7.210;2023-03-29T16:40:54;17.10;13.40
11423;DHT22;5768;51.476;7.210;2023-03-29T16:45:57;17.10;13.50
11423;DHT22;5768;51.476;7.210;2023-03-29T16:56:06;17.10;13.40
11423;DHT22;5768;51.476;7.210;2023-03-29T17:01:12;16.90;13.40
11423;DHT22;5768;51.476;7.210;2023-03-29T17:06:17;16.80;13.40
11423;DHT22;5768;51.476;7.210;2023-03-29T17:11:20;16.80;13.50
11423;DHT22;5768;51.476;7.210;2023-03-29T17:16:23;16.90;13.50
11423;DHT22;5768;51.476;7.210;2023-03-29T17:21:29;16.80;13.60
11423;DHT22;5768;51.476;7.210;2023-03-29T17:26:34;16.60;13.70
11423;DHT22;5768;51.476;7.210;2023-03-29T17:36:48;16.70;13.70
11423;DHT22;5768;51.476;7.210;2023-03-29T17:41:53;16.80;13.80
11423;DHT22;5768;51.476;7.210;2023-03-29T17:46:55;16.70;13.90
11423;DHT22;5768;51.476;7.210;2023-03-29T17:51:59;16.60;13.80
11423;DHT22;5768;51.476;7.210;2023-03-29T17:57:01;16.60;13.90
11423;DHT22;5768;51.476;7.210;2023-03-29T18:02:04;16.60;13.90
11423;DHT22;5768;51.476;7.210;2023-03-29T18:07:11;16.50;13.90
11423;DHT22;5768;51.476;7.210;2023-03-29T18:12:14;16.50;14.00
11423;DHT22;5768;51.476;7.210;2023-03-29T18:17:17;16.40;13.90
11423;DHT22;5768;51.476;7.210;2023-03-29T18:22:21;16.40;14.00
11423;DHT22;5768;51.476;7.210;2023-03-29T18:27:23;16.30;14.00
11423;DHT22;5768;51.476;7.210;2023-03-29T18:32:26;16.30;14.10
11423;DHT22;5768;51.476;7.210;2023-03-29T18:37:29;16.20;14.20
11423;DHT22;5768;51.476;7.210;2023-03-29T18:42:32;16.10;14.30
11423;DHT22;5768;51.476;7.210;2023-03-29T18:47:34;16.00;14.30
11423;DHT22;5768;51.476;7.210;2023-03-29T18:52:37;16.00;14.50
11423;DHT22;5768;51.476;7.210;2023-03-29T18:57:40;15.90;14.50
11423;DHT22;5768;51.476;7.210;2023-03-29T19:02:43;15.90;14.70
11423;DHT22;5768;51.476;7.210;2023-03-29T19:07:48;15.80;14.80
11423;DHT22;5768;51.476;7.210;2023-03-29T19:12:50;15.80;14.90
11423;DHT22;5768;51.476;7.210;2023-03-29T19:17:52;15.80;14.90
11423;DHT22;5768;51.476;7.210;2023-03-29T19:22:56;15.70;15.00
11423;DHT22;5768;51.476;7.210;2023-03-29T19:27:59;15.70;15.10
11423;DHT22;5768;51.476;7.210;2023-03-29T19:33:03;15.70;15.20
11423;DHT22;5768;51.476;7.210;2023-03-29T19:38:06;15.60;15.30
11423;DHT22;5768;51.476;7.210;2023-03-29T19:43:09;15.60;15.40
11423;DHT22;5768;51.476;7.210;2023-03-29T19:48:17;15.50;15.50
11423;DHT22;5768;51.476;7.210;2023-03-29T19:53:21;15.40;15.60
11423;DHT22;5768;51.476;7.210;2023-03-29T19:58:24;15.30;15.70
11423;DHT22;5768;51.476;7.210;2023-03-29T20:03:26;15.40;15.80
11423;DHT22;5768;51.476;7.210;2023-03-29T20:08:30;15.30;15.80
11423;DHT22;5768;51.476;7.210;2023-03-29T20:13:32;15.30;15.80
11423;DHT22;5768;51.476;7.210;2023-03-29T20:18:35;15.30;15.80
11423;DHT22;5768;51.476;7.210;2023-03-29T20:23:39;15.20;15.80
11423;DHT22;5768;51.476;7.210;2023-03-29T20:28:42;15.20;15.90
11423;DHT22;5768;51.476;7.210;2023-03-29T20:33:44;15.10;15.90
11423;DHT22;5768;51.476;7.210;2023-03-29T20:38:48;15.10;15.90
11423;DHT22;5768;51.476;7.210;2023-03-29T20:43:50;15.00;15.90
11423;DHT22;5768;51.476;7.210;2023-03-29T20:48:58;15.00;15.90
11423;DHT22;5768;51.476;7.210;2023-03-29T20:54:03;15.00;15.90
11423;DHT22;5768;51.476;7.210;2023-03-29T20:59:07;15.00;16.00
11423;DHT22;5768;51.476;7.210;2023-03-29T21:04:11;14.90;15.80
11423;DHT22;5768;51.476;7.210;2023-03-29T21:09:15;14.80;15.80
11423;DHT22;5768;51.476;7.210;2023-03-29T21:14:18;14.90;15.80
11423;DHT22;5768;51.476;7.210;2023-03-29T21:19:20;14.90;15.70
11423;DHT22;5768;51.476;7.210;2023-03-29T21:24:25;14.90;15.70
11423;DHT22;5768;51.476;7.210;2023-03-29T21:29:27;14.90;15.70
11423;DHT22;5768;51.476;7.210;2023-03-29T21:34:29;14.90;15.70
11423;DHT22;5768;51.476;7.210;2023-03-29T21:39:33;14.90;15.70
11423;DHT22;5768;51.476;7.210;2023-03-29T21:44:35;14.90;15.60
11423;DHT22;5768;51.476;7.210;2023-03-29T21:49:37;14.80;15.60
11423;DHT22;5768;51.476;7.210;2023-03-29T21:54:41;14.90;15.60
11423;DHT22;5768;51.476;7.210;2023-03-29T21:59:43;14.80;15.50
11423;DHT22;5768;51.476;7.210;2023-03-29T22:04:46;14.70;15.50
11423;DHT22;5768;51.476;7.210;2023-03-29T22:09:49;14.70;15.50
11423;DHT22;5768;51.476;7.210;2023-03-29T22:14:52;14.70;15.50
11423;DHT22;5768;51.476;7.210;2023-03-29T22:19:54;14.60;15.50
11423;DHT22;5768;51.476;7.210;2023-03-29T22:24:58;14.60;15.40
11423;DHT22;5768;51.476;7.210;2023-03-29T22:30:01;14.60;15.40
11423;DHT22;5768;51.476;7.210;2023-03-29T22:35:04;14.60;15.30
11423;DHT22;5768;51.476;7.210;2023-03-29T22:40:10;14.70;15.20
11423;DHT22;5768;51.476;7.210;2023-03-29T22:45:13;14.60;15.20
11423;DHT22;5768;51.476;7.210;2023-03-29T22:50:15;14.60;15.10
11423;DHT22;5768;51.476;7.210;2023-03-29T22:55:19;14.60;15.10
11423;DHT22;5768;51.476;7.210;2023-03-29T23:00:21;14.70;15.00
11423;DHT22;5768;51.476;7.210;2023-03-29T23:05:24;14.60;14.90
11423;DHT22;5768;51.476;7.210;2023-03-29T23:10:27;14.60;14.90
11423;DHT22;5768;51.476;7.210;2023-03-29T23:15:30;15.50;14.90
11423;DHT22;5768;51.476;7.210;2023-03-29T23:20:33;15.40;14.90
11423;DHT22;5768;51.476;7.210;2023-03-29T23:25:41;14.40;14.80
11423;DHT22;5768;51.476;7.210;2023-03-29T23:30:51;14.40;14.80
11423;DHT22;5768;51.476;7.210;2023-03-29T23:41:00;14.50;14.60
11423;DHT22;5768;51.476;7.210;2023-03-29T23:46:05;14.60;14.50
11423;DHT22;5768;51.476;7.210;2023-03-29T23:51:11;14.70;14.50
11423;DHT22;5768;51.476;7.210;2023-03-29T23:56:15;14.70;14.40
